sensor_id;sensor_type;location;lat;lon;timestamp;pressure;altitude;pressure_sealevel;temperature;humidity
70072;BME280;57434;42.794;23.302;2023-02-23T00:00:15;95521.78;;;2.50;65.23
70072;BME280;57434;42.794;23.302;2023-02-23T00:01:24;95515.25;;;2.44;65.56
70072;BME280;57434;42.794;23.302;2023-02-23T00:02:27;95523.31;;;2.25;65.87
70072;BME280;57434;42.794;23.302;2023-02-23T00:03:29;95517.22;;;2.30;66.09
70072;BME280;57434;42.794;23.302;2023-02-23T00:04:31;95550.22;;;2.37;65.96
70072;BME280;57434;42.794;23.302;2023-02-23T00:05:35;95358.50;;;1.19;64.96
70072;BME280;57434;42.794;23.302;2023-02-23T00:06:37;95523.53;;;1.77;65.52
70072;BME280;57434;42.794;23.302;2023-02-23T00:07:41;95468.47;;;1.41;66.06
70072;BME280;57434;42.794;23.302;2023-02-23T00:08:44;95519.75;;;1.99;65.56
70072;BME280;57434;42.794;23.302;2023-02-23T00:09:46;95517.28;;;2.01;65.49
70072;BME280;57434;42.794;23.302;2023-02-23T00:10:48;95415.53;;;1.55;64.78
70072;BME280;57434;42.794;23.302;2023-02-23T00:11:55;95523.75;;;2.24;64.48
70072;BME280;57434;42.794;23.302;2023-02-23T00:12:59;95528.84;;;2.25;64.29
70072;BME280;57434;42.794;23.302;2023-02-23T00:14:01;95490.00;;;1.75;64.25
70072;BME280;57434;42.794;23.302;2023-02-23T00:15:03;95481.00;;;1.99;63.83
70072;BME280;57434;42.794;23.302;2023-02-23T00:16:10;95511.81;;;2.27;63.69
70072;BME280;57434;42.794;23.302;2023-02-23T00:17:13;95484.53;;;2.13;63.88
70072;BME280;57434;42.794;23.302;2023-02-23T00:18:15;95507.00;;;2.02;64.29
70072;BME280;57434;42.794;23.302;2023-02-23T00:19:18;95483.72;;;1.87;64.62
70072;BME280;57434;42.794;23.302;2023-02-23T00:20:21;95525.91;;;2.03;65.22
70072;BME280;57434;42.794;23.302;2023-02-23T00:21:27;95461.94;;;1.47;65.89
70072;BME280;57434;42.794;23.302;2023-02-23T00:22:29;95526.78;;;1.88;66.07
70072;BME280;57434;42.794;23.302;2023-02-23T00:23:31;95524.38;;;2.02;65.94
70072;BME280;57434;42.794;23.302;2023-02-23T00:24:33;95531.50;;;2.16;66.19
70072;BME280;57434;42.794;23.302;2023-02-23T00:25:37;95530.28;;;2.30;67.38
70072;BME280;57434;42.794;23.302;2023-02-23T00:26:39;95530.72;;;2.28;67.36
70072;BME280;57434;42.794;23.302;2023-02-23T00:27:41;95517.78;;;2.38;66.88
70072;BME280;57434;42.794;23.302;2023-02-23T00:28:43;95532.41;;;2.51;65.10
70072;BME280;57434;42.794;23.302;2023-02-23T00:29:44;95535.19;;;2.64;64.27
70072;BME280;57434;42.794;23.302;2023-02-23T00:30:46;95506.72;;;2.25;64.31
70072;BME280;57434;42.794;23.302;2023-02-23T00:31:49;95532.59;;;2.31;64.97
70072;BME280;57434;42.794;23.302;2023-02-23T00:32:52;95507.69;;;2.31;65.02
70072;BME280;57434;42.794;23.302;2023-02-23T00:34:01;95527.09;;;2.44;64.77
70072;BME280;57434;42.794;23.302;2023-02-23T00:35:03;95496.09;;;2.24;64.75
70072;BME280;57434;42.794;23.302;2023-02-23T00:36:11;95531.53;;;2.54;65.82
70072;BME280;57434;42.794;23.302;2023-02-23T00:37:13;95531.28;;;2.61;65.88
70072;BME280;57434;42.794;23.302;2023-02-23T00:38:15;95552.22;;;2.62;64.84
70072;BME280;57434;42.794;23.302;2023-02-23T00:39:17;95496.97;;;2.46;65.01
70072;BME280;57434;42.794;23.302;2023-02-23T00:40:19;95533.41;;;2.70;65.14
70072;BME280;57434;42.794;23.302;2023-02-23T00:41:21;95508.81;;;2.47;65.71
70072;BME280;57434;42.794;23.302;2023-02-23T00:42:23;95520.44;;;2.67;65.82
70072;BME280;57434;42.794;23.302;2023-02-23T00:43:25;95517.81;;;2.51;65.18
70072;BME280;57434;42.794;23.302;2023-02-23T00:44:27;95521.56;;;2.69;65.32
70072;BME280;57434;42.794;23.302;2023-02-23T00:45:28;95529.84;;;2.57;64.47
70072;BME280;57434;42.794;23.302;2023-02-23T00:46:30;95493.97;;;2.28;64.63
70072;BME280;57434;42.794;23.302;2023-02-23T00:47:32;95525.44;;;2.59;64.81
70072;BME280;57434;42.794;23.302;2023-02-23T00:48:34;95555.09;;;2.59;64.31
70072;BME280;57434;42.794;23.302;2023-02-23T00:49:36;95522.91;;;2.52;64.10
70072;BME280;57434;42.794;23.302;2023-02-23T00:50:38;95465.06;;;2.16;63.94
70072;BME280;57434;42.794;23.302;2023-02-23T00:51:40;95513.03;;;2.38;64.02
70072;BME280;57434;42.794;23.302;2023-02-23T00:52:43;95524.75;;;2.30;64.56
70072;BME280;57434;42.794;23.302;2023-02-23T00:53:45;95368.13;;;1.27;64.55
70072;BME280;57434;42.794;23.302;2023-02-23T00:54:46;95521.09;;;2.20;65.05
70072;BME280;57434;42.794;23.302;2023-02-23T00:55:48;95489.75;;;2.11;64.74
70072;BME280;57434;42.794;23.302;2023-02-23T00:56:50;95515.03;;;2.25;65.25
70072;BME280;57434;42.794;23.302;2023-02-23T00:57:52;95517.75;;;2.13;65.33
70072;BME280;57434;42.794;23.302;2023-02-23T00:58:55;95520.28;;;1.94;65.61
70072;BME280;57434;42.794;23.302;2023-02-23T00:59:57;95522.81;;;1.89;66.20
70072;BME280;57434;42.794;23.302;2023-02-23T01:00:59;95378.94;;;0.80;67.19
70072;BME280;57434;42.794;23.302;2023-02-23T01:02:01;95247.88;;;0.11;67.36
70072;BME280;57434;42.794;23.302;2023-02-23T01:03:03;95453.09;;;1.40;68.06
70072;BME280;57434;42.794;23.302;2023-02-23T01:04:04;95513.28;;;1.90;67.91
70072;BME280;57434;42.794;23.302;2023-02-23T01:05:07;95537.00;;;2.03;67.69
70072;BME280;57434;42.794;23.302;2023-02-23T01:06:11;95521.72;;;2.12;67.45
70072;BME280;57434;42.794;23.302;2023-02-23T01:07:14;95489.31;;;1.99;67.21
70072;BME280;57434;42.794;23.302;2023-02-23T01:08:17;95500.81;;;2.11;67.27
70072;BME280;57434;42.794;23.302;2023-02-23T01:09:19;95426.09;;;1.72;66.86
70072;BME280;57434;42.794;23.302;2023-02-23T01:10:21;95518.19;;;2.11;67.08
70072;BME280;57434;42.794;23.302;2023-02-23T01:11:25;95530.50;;;2.35;69.26
70072;BME280;57434;42.794;23.302;2023-02-23T01:12:27;95536.94;;;2.58;70.48
70072;BME280;57434;42.794;23.302;2023-02-23T01:13:29;95522.88;;;2.65;69.97
70072;BME280;57434;42.794;23.302;2023-02-23T01:14:32;95527.53;;;2.81;69.37
70072;BME280;57434;42.794;23.302;2023-02-23T01:15:39;95535.59;;;2.88;69.30
70072;BME280;57434;42.794;23.302;2023-02-23T01:16:41;95533.94;;;2.90;68.56
70072;BME280;57434;42.794;23.302;2023-02-23T01:17:44;95538.28;;;2.79;67.99
70072;BME280;57434;42.794;23.302;2023-02-23T01:18:46;95402.19;;;1.91;67.60
70072;BME280;57434;42.794;23.302;2023-02-23T01:19:48;95504.69;;;2.13;68.43
70072;BME280;57434;42.794;23.302;2023-02-23T01:20:50;95513.16;;;1.81;68.26
70072;BME280;57434;42.794;23.302;2023-02-23T01:21:52;95523.66;;;1.73;68.05
70072;BME280;57434;42.794;23.302;2023-02-23T01:22:54;95537.16;;;1.55;67.05
70072;BME280;57434;42.794;23.302;2023-02-23T01:23:57;95523.31;;;1.26;67.53
70072;BME280;57434;42.794;23.302;2023-02-23T01:24:59;95511.97;;;1.08;67.72
70072;BME280;57434;42.794;23.302;2023-02-23T01:26:01;95531.56;;;1.13;68.10
70072;BME280;57434;42.794;23.302;2023-02-23T01:27:03;95540.81;;;1.07;68.53
70072;BME280;57434;42.794;23.302;2023-02-23T01:28:04;95369.53;;;-0.00;68.60
70072;BME280;57434;42.794;23.302;2023-02-23T01:29:12;95528.56;;;0.91;69.38
70072;BME280;57434;42.794;23.302;2023-02-23T01:30:14;95485.16;;;0.76;69.31
70072;BME280;57434;42.794;23.302;2023-02-23T01:31:16;95521.63;;;0.99;68.84
70072;BME280;57434;42.794;23.302;2023-02-23T01:32:18;95542.63;;;0.97;69.52
70072;BME280;57434;42.794;23.302;2023-02-23T01:33:20;95487.41;;;0.81;69.64
70072;BME280;57434;42.794;23.302;2023-02-23T01:34:22;95549.78;;;1.11;69.78
70072;BME280;57434;42.794;23.302;2023-02-23T01:35:24;95496.53;;;0.94;69.74
70072;BME280;57434;42.794;23.302;2023-02-23T01:36:26;95499.72;;;1.09;69.24
70072;BME280;57434;42.794;23.302;2023-02-23T01:37:29;95502.03;;;1.10;68.58
70072;BME280;57434;42.794;23.302;2023-02-23T01:38:30;95511.47;;;1.42;68.04
70072;BME280;57434;42.794;23.302;2023-02-23T01:39:32;95493.78;;;1.23;67.84
70072;BME280;57434;42.794;23.302;2023-02-23T01:40:34;95527.03;;;1.35;68.00
70072;BME280;57434;42.794;23.302;2023-02-23T01:41:37;95527.25;;;1.12;68.51
70072;BME280;57434;42.794;23.302;2023-02-23T01:42:44;95419.34;;;0.09;69.61
70072;BME280;57434;42.794;23.302;2023-02-23T01:44:02;95539.25;;;0.73;70.57
70072;BME280;57434;42.794;23.302;2023-02-23T01:45:25;95545.91;;;0.76;70.59
70072;BME280;57434;42.794;23.302;2023-02-23T01:46:30;95487.03;;;0.46;71.04
70072;BME280;57434;42.794;23.302;2023-02-23T01:47:32;95541.25;;;0.89;70.59
70072;BME280;57434;42.794;23.302;2023-02-23T01:48:37;95521.63;;;0.99;69.89
70072;BME280;57434;42.794;23.302;2023-02-23T01:49:40;95498.84;;;0.95;69.48
70072;BME280;57434;42.794;23.302;2023-02-23T01:50:44;95360.63;;;0.25;68.67
70072;BME280;57434;42.794;23.302;2023-02-23T01:52:06;95523.75;;;1.41;68.11
70072;BME280;57434;42.794;23.302;2023-02-23T01:53:09;95454.81;;;1.04;67.42
70072;BME280;57434;42.794;23.302;2023-02-23T01:54:17;95524.19;;;1.68;66.85
70072;BME280;57434;42.794;23.302;2023-02-23T01:55:21;95526.41;;;1.73;66.54
70072;BME280;57434;42.794;23.302;2023-02-23T01:56:28;95345.38;;;0.37;66.62
70072;BME280;57434;42.794;23.302;2023-02-23T01:57:31;95527.06;;;1.48;67.09
70072;BME280;57434;42.794;23.302;2023-02-23T01:58:33;95530.53;;;1.52;67.70
70072;BME280;57434;42.794;23.302;2023-02-23T01:59:42;95518.78;;;1.48;67.89
70072;BME280;57434;42.794;23.302;2023-02-23T02:00:51;95398.78;;;0.75;67.78
70072;BME280;57434;42.794;23.302;2023-02-23T02:01:54;95377.22;;;0.70;67.83
70072;BME280;57434;42.794;23.302;2023-02-23T02:02:59;95479.97;;;1.23;68.32
70072;BME280;57434;42.794;23.302;2023-02-23T02:04:03;95521.16;;;1.33;69.04
70072;BME280;57434;42.794;23.302;2023-02-23T02:05:06;95492.13;;;0.96;69.92
70072;BME280;57434;42.794;23.302;2023-02-23T02:06:11;95517.72;;;1.29;70.15
70072;BME280;57434;42.794;23.302;2023-02-23T02:07:16;95516.06;;;1.32;69.93
70072;BME280;57434;42.794;23.302;2023-02-23T02:08:19;95505.16;;;1.12;70.09
70072;BME280;57434;42.794;23.302;2023-02-23T02:09:22;95502.19;;;1.19;69.48
70072;BME280;57434;42.794;23.302;2023-02-23T02:10:26;95531.53;;;1.29;69.08
70072;BME280;57434;42.794;23.302;2023-02-23T02:11:28;95512.69;;;1.41;69.10
70072;BME280;57434;42.794;23.302;2023-02-23T02:12:30;95519.03;;;1.54;68.89
70072;BME280;57434;42.794;23.302;2023-02-23T02:13:32;95518.50;;;1.59;68.80
70072;BME280;57434;42.794;23.302;2023-02-23T02:14:35;95522.56;;;1.54;68.08
70072;BME280;57434;42.794;23.302;2023-02-23T02:16:01;95499.91;;;1.59;68.90
70072;BME280;57434;42.794;23.302;2023-02-23T02:22:51;95370.72;;;0.31;67.06
70072;BME280;57434;42.794;23.302;2023-02-23T02:25:27;95527.50;;;1.18;66.29
70072;BME280;57434;42.794;23.302;2023-02-23T02:27:50;95563.50;;;1.14;66.11
70072;BME280;57434;42.794;23.302;2023-02-23T02:37:13;95540.19;;;1.15;68.01
70072;BME280;57434;42.794;23.302;2023-02-23T02:45:45;95464.34;;;0.71;68.61
70072;BME280;57434;42.794;23.302;2023-02-23T02:46:54;95349.94;;;-0.06;69.07
70072;BME280;57434;42.794;23.302;2023-02-23T02:48:26;95528.47;;;1.11;69.32
70072;BME280;57434;42.794;23.302;2023-02-23T02:49:31;95517.94;;;1.06;69.13
70072;BME280;57434;42.794;23.302;2023-02-23T02:50:48;95511.88;;;0.95;69.28
70072;BME280;57434;42.794;23.302;2023-02-23T02:52:10;95518.44;;;1.01;69.46
70072;BME280;57434;42.794;23.302;2023-02-23T02:54:52;95497.22;;;0.98;69.28
70072;BME280;57434;42.794;23.302;2023-02-23T02:55:57;95515.56;;;1.21;69.48
70072;BME280;57434;42.794;23.302;2023-02-23T02:57:03;95510.63;;;1.28;69.64
70072;BME280;57434;42.794;23.302;2023-02-23T02:58:06;95501.31;;;1.22;69.00
70072;BME280;57434;42.794;23.302;2023-02-23T02:59:15;95499.41;;;1.19;68.78
70072;BME280;57434;42.794;23.302;2023-02-23T03:00:19;95425.72;;;0.39;69.20
70072;BME280;57434;42.794;23.302;2023-02-23T03:01:22;95426.94;;;0.54;69.21
70072;BME280;57434;42.794;23.302;2023-02-23T03:02:24;95505.84;;;1.00;69.39
70072;BME280;57434;42.794;23.302;2023-02-23T03:03:32;95511.72;;;1.02;69.45
70072;BME280;57434;42.794;23.302;2023-02-23T03:04:35;95521.16;;;0.88;69.78
70072;BME280;57434;42.794;23.302;2023-02-23T03:05:44;95523.03;;;0.91;69.85
70072;BME280;57434;42.794;23.302;2023-02-23T03:06:58;95502.16;;;0.90;70.20
70072;BME280;57434;42.794;23.302;2023-02-23T03:11:02;95499.72;;;1.09;70.28
70072;BME280;57434;42.794;23.302;2023-02-23T03:13:46;95390.91;;;0.28;70.30
70072;BME280;57434;42.794;23.302;2023-02-23T03:16:40;95504.03;;;1.10;69.66
70072;BME280;57434;42.794;23.302;2023-02-23T03:17:47;95483.31;;;1.01;69.52
70072;BME280;57434;42.794;23.302;2023-02-23T03:20:23;95328.50;;;0.02;69.16
70072;BME280;57434;42.794;23.302;2023-02-23T03:21:32;95518.84;;;1.32;69.36
70072;BME280;57434;42.794;23.302;2023-02-23T03:22:45;95516.66;;;1.40;69.12
70072;BME280;57434;42.794;23.302;2023-02-23T03:24:10;95391.22;;;0.63;68.50
70072;BME280;57434;42.794;23.302;2023-02-23T03:25:28;95508.81;;;1.22;68.57
70072;BME280;57434;42.794;23.302;2023-02-23T03:26:39;95540.03;;;1.06;68.95
70072;BME280;57434;42.794;23.302;2023-02-23T03:29:21;95426.16;;;0.37;69.38
70072;BME280;57434;42.794;23.302;2023-02-23T03:30:38;95501.91;;;0.85;69.36
70072;BME280;57434;42.794;23.302;2023-02-23T03:31:45;95553.06;;;1.06;69.34
70072;BME280;57434;42.794;23.302;2023-02-23T03:32:55;95538.31;;;1.12;68.97
70072;BME280;57434;42.794;23.302;2023-02-23T03:36:16;95515.06;;;0.93;68.61
70072;BME280;57434;42.794;23.302;2023-02-23T03:37:34;95521.16;;;0.88;68.61
70072;BME280;57434;42.794;23.302;2023-02-23T03:38:46;95534.19;;;0.88;68.39
70072;BME280;57434;42.794;23.302;2023-02-23T03:39:55;95523.13;;;0.72;68.47
70072;BME280;57434;42.794;23.302;2023-02-23T03:41:00;95501.53;;;0.50;68.76
70072;BME280;57434;42.794;23.302;2023-02-23T03:42:08;95521.22;;;0.68;68.67
70072;BME280;57434;42.794;23.302;2023-02-23T03:43:16;95538.75;;;0.78;68.70
70072;BME280;57434;42.794;23.302;2023-02-23T03:44:31;95538.06;;;0.90;68.63
70072;BME280;57434;42.794;23.302;2023-02-23T03:45:35;95540.38;;;1.08;68.62
70072;BME280;57434;42.794;23.302;2023-02-23T03:46:38;95526.91;;;0.94;68.71
70072;BME280;57434;42.794;23.302;2023-02-23T03:47:42;95545.38;;;1.13;68.41
70072;BME280;57434;42.794;23.302;2023-02-23T03:48:46;95538.50;;;0.89;68.83
70072;BME280;57434;42.794;23.302;2023-02-23T03:49:53;95549.44;;;0.76;69.43
70072;BME280;57434;42.794;23.302;2023-02-23T03:50:58;95544.94;;;0.66;70.03
70072;BME280;57434;42.794;23.302;2023-02-23T03:52:12;95540.38;;;0.59;70.45
70072;BME280;57434;42.794;23.302;2023-02-23T03:53:20;95530.28;;;0.53;70.69
70072;BME280;57434;42.794;23.302;2023-02-23T03:54:30;95553.22;;;0.50;71.23
70072;BME280;57434;42.794;23.302;2023-02-23T03:55:37;95559.50;;;0.50;71.49
70072;BME280;57434;42.794;23.302;2023-02-23T03:56:43;95569.06;;;0.46;71.59
70072;BME280;57434;42.794;23.302;2023-02-23T03:57:50;95525.47;;;0.21;71.80
70072;BME280;57434;42.794;23.302;2023-02-23T03:58:58;95552.28;;;0.56;71.79
70072;BME280;57434;42.794;23.302;2023-02-23T04:00:05;95552.28;;;0.20;72.82
70072;BME280;57434;42.794;23.302;2023-02-23T04:01:09;95556.38;;;0.32;72.90
70072;BME280;57434;42.794;23.302;2023-02-23T04:02:13;95499.06;;;0.04;72.86
70072;BME280;57434;42.794;23.302;2023-02-23T04:03:18;95552.97;;;0.60;72.54
70072;BME280;57434;42.794;23.302;2023-02-23T04:04:23;95544.16;;;0.65;72.26
70072;BME280;57434;42.794;23.302;2023-02-23T04:05:27;95541.16;;;0.76;72.05
70072;BME280;57434;42.794;23.302;2023-02-23T04:06:35;95522.78;;;0.53;71.92
70072;BME280;57434;42.794;23.302;2023-02-23T04:07:39;95538.97;;;0.67;71.92
70072;BME280;57434;42.794;23.302;2023-02-23T04:08:42;95541.94;;;0.77;71.55
70072;BME280;57434;42.794;23.302;2023-02-23T04:09:44;95506.97;;;0.54;71.12
70072;BME280;57434;42.794;23.302;2023-02-23T04:10:50;95546.84;;;0.85;70.79
70072;BME280;57434;42.794;23.302;2023-02-23T04:11:59;95545.56;;;0.90;70.58
70072;BME280;57434;42.794;23.302;2023-02-23T04:13:07;95541.84;;;0.96;70.46
70072;BME280;57434;42.794;23.302;2023-02-23T04:14:35;95546.94;;;0.98;70.30
70072;BME280;57434;42.794;23.302;2023-02-23T04:16:48;95424.94;;;0.06;70.38
70072;BME280;57434;42.794;23.302;2023-02-23T04:17:52;95541.06;;;0.96;70.72
70072;BME280;57434;42.794;23.302;2023-02-23T04:18:54;95535.38;;;1.03;70.67
70072;BME280;57434;42.794;23.302;2023-02-23T04:19:56;95533.28;;;1.07;70.56
70072;BME280;57434;42.794;23.302;2023-02-23T04:20:59;95542.88;;;1.19;70.64
70072;BME280;57434;42.794;23.302;2023-02-23T04:22:02;95492.56;;;0.79;70.73
70072;BME280;57434;42.794;23.302;2023-02-23T04:23:04;95532.78;;;1.12;70.73
70072;BME280;57434;42.794;23.302;2023-02-23T04:24:06;95512.16;;;1.00;70.73
70072;BME280;57434;42.794;23.302;2023-02-23T04:25:08;95499.28;;;0.94;70.70
70072;BME280;57434;42.794;23.302;2023-02-23T04:26:10;95503.72;;;0.91;70.76
70072;BME280;57434;42.794;23.302;2023-02-23T04:27:13;95526.81;;;0.97;71.17
70072;BME280;57434;42.794;23.302;2023-02-23T04:28:15;95546.41;;;1.03;71.45
70072;BME280;57434;42.794;23.302;2023-02-23T04:29:17;95530.88;;;0.93;71.28
70072;BME280;57434;42.794;23.302;2023-02-23T04:30:19;95539.25;;;0.73;70.75
70072;BME280;57434;42.794;23.302;2023-02-23T04:31:21;95541.31;;;0.69;70.72
70072;BME280;57434;42.794;23.302;2023-02-23T04:32:25;95551.50;;;0.72;70.10
70072;BME280;57434;42.794;23.302;2023-02-23T04:33:27;95535.09;;;0.65;69.72
70072;BME280;57434;42.794;23.302;2023-02-23T04:34:29;95533.97;;;0.46;69.69
70072;BME280;57434;42.794;23.302;2023-02-23T04:35:31;95481.91;;;0.12;69.68
70072;BME280;57434;42.794;23.302;2023-02-23T04:36:33;95525.97;;;0.16;70.02
70072;BME280;57434;42.794;23.302;2023-02-23T04:37:35;95493.28;;;-0.02;70.47
70072;BME280;57434;42.794;23.302;2023-02-23T04:38:37;95550.38;;;0.53;70.14
70072;BME280;57434;42.794;23.302;2023-02-23T04:39:40;95549.66;;;0.33;69.80
70072;BME280;57434;42.794;23.302;2023-02-23T04:40:42;95540.69;;;0.45;69.70
70072;BME280;57434;42.794;23.302;2023-02-23T04:41:44;95448.16;;;-0.12;69.72
70072;BME280;57434;42.794;23.302;2023-02-23T04:42:46;95443.22;;;-0.01;69.53
70072;BME280;57434;42.794;23.302;2023-02-23T04:43:47;95529.50;;;0.52;69.45
70072;BME280;57434;42.794;23.302;2023-02-23T04:44:49;95401.44;;;-0.35;68.89
70072;BME280;57434;42.794;23.302;2023-02-23T04:45:51;95547.78;;;0.46;69.18
70072;BME280;57434;42.794;23.302;2023-02-23T04:46:53;95557.41;;;0.38;69.32
70072;BME280;57434;42.794;23.302;2023-02-23T04:47:54;95483.28;;;-0.32;69.77
70072;BME280;57434;42.794;23.302;2023-02-23T04:48:56;95527.16;;;-0.02;70.23
70072;BME280;57434;42.794;23.302;2023-02-23T04:49:58;95548.47;;;0.14;70.36
70072;BME280;57434;42.794;23.302;2023-02-23T04:51:00;95318.88;;;-1.54;70.10
70072;BME280;57434;42.794;23.302;2023-02-23T04:52:03;95553.38;;;-0.13;70.48
70072;BME280;57434;42.794;23.302;2023-02-23T04:53:05;95542.59;;;-0.24;70.28
70072;BME280;57434;42.794;23.302;2023-02-23T04:54:07;95567.81;;;-0.06;70.75
70072;BME280;57434;42.794;23.302;2023-02-23T04:55:17;95546.47;;;0.15;70.76
70072;BME280;57434;42.794;23.302;2023-02-23T04:56:19;95516.81;;;-0.17;69.57
70072;BME280;57434;42.794;23.302;2023-02-23T04:57:21;95547.44;;;-0.12;69.72
70072;BME280;57434;42.794;23.302;2023-02-23T04:58:23;95544.28;;;-0.30;69.79
70072;BME280;57434;42.794;23.302;2023-02-23T04:59:25;95419.84;;;-1.27;70.28
70072;BME280;57434;42.794;23.302;2023-02-23T05:00:28;95544.28;;;-0.50;70.72
70072;BME280;57434;42.794;23.302;2023-02-23T05:01:30;95563.97;;;-0.51;70.70
70072;BME280;57434;42.794;23.302;2023-02-23T05:02:32;95554.41;;;-0.67;70.77
70072;BME280;57434;42.794;23.302;2023-02-23T05:03:34;95582.88;;;-0.73;71.21
70072;BME280;57434;42.794;23.302;2023-02-23T05:04:37;95566.97;;;-0.66;71.37
70072;BME280;57434;42.794;23.302;2023-02-23T05:05:39;95535.41;;;-0.81;71.17
70072;BME280;57434;42.794;23.302;2023-02-23T05:06:41;95485.22;;;-1.12;71.02
70072;BME280;57434;42.794;23.302;2023-02-23T05:07:43;95560.28;;;-0.64;70.94
70072;BME280;57434;42.794;23.302;2023-02-23T05:08:45;95566.50;;;-0.60;70.99
70072;BME280;57434;42.794;23.302;2023-02-23T05:09:47;95527.78;;;-0.96;71.22
70072;BME280;57434;42.794;23.302;2023-02-23T05:10:48;95419.84;;;-1.74;71.16
70072;BME280;57434;42.794;23.302;2023-02-23T05:11:50;95574.75;;;-0.80;71.72
70072;BME280;57434;42.794;23.302;2023-02-23T05:12:52;95565.13;;;-0.72;71.53
70072;BME280;57434;42.794;23.302;2023-02-23T05:13:54;95389.00;;;-1.85;71.16
70072;BME280;57434;42.794;23.302;2023-02-23T05:14:57;95559.66;;;-0.52;70.99
70072;BME280;57434;42.794;23.302;2023-02-23T05:15:59;95556.75;;;-0.45;70.78
70072;BME280;57434;42.794;23.302;2023-02-23T05:17:02;95565.47;;;-0.27;71.17
70072;BME280;57434;42.794;23.302;2023-02-23T05:18:04;95446.69;;;-0.92;70.82
70072;BME280;57434;42.794;23.302;2023-02-23T05:19:06;95528.28;;;-0.39;70.30
70072;BME280;57434;42.794;23.302;2023-02-23T05:20:10;95563.28;;;-0.16;70.00
70072;BME280;57434;42.794;23.302;2023-02-23T05:21:12;95554.09;;;-0.29;69.66
70072;BME280;57434;42.794;23.302;2023-02-23T05:22:14;95530.75;;;-0.64;69.90
70072;BME280;57434;42.794;23.302;2023-02-23T05:23:17;95561.72;;;-0.56;70.45
70072;BME280;57434;42.794;23.302;2023-02-23T05:24:20;95491.63;;;-0.98;70.57
70072;BME280;57434;42.794;23.302;2023-02-23T05:25:22;95536.13;;;-0.77;70.78
70072;BME280;57434;42.794;23.302;2023-02-23T05:26:24;95545.06;;;-0.73;70.49
70072;BME280;57434;42.794;23.302;2023-02-23T05:27:26;95560.34;;;-0.68;70.08
70072;BME280;57434;42.794;23.302;2023-02-23T05:28:29;95563.25;;;-0.55;69.98
70072;BME280;57434;42.794;23.302;2023-02-23T05:29:31;95578.91;;;-0.72;69.89
70072;BME280;57434;42.794;23.302;2023-02-23T05:30:34;95568.53;;;-0.64;70.07
70072;BME280;57434;42.794;23.302;2023-02-23T05:31:36;95568.44;;;-0.81;70.31
70072;BME280;57434;42.794;23.302;2023-02-23T05:32:38;95576.66;;;-0.77;70.62
70072;BME280;57434;42.794;23.302;2023-02-23T05:33:41;95597.19;;;-0.82;70.74
70072;BME280;57434;42.794;23.302;2023-02-23T05:34:43;95582.81;;;-0.93;71.25
70072;BME280;57434;42.794;23.302;2023-02-23T05:35:48;95459.94;;;-1.77;71.14
70072;BME280;57434;42.794;23.302;2023-02-23T05:36:50;95568.97;;;-1.13;71.53
70072;BME280;57434;42.794;23.302;2023-02-23T05:37:53;95576.09;;;-1.15;72.27
70072;BME280;57434;42.794;23.302;2023-02-23T05:38:55;95582.38;;;-0.91;72.33
70072;BME280;57434;42.794;23.302;2023-02-23T05:39:58;95550.53;;;-0.92;72.54
70072;BME280;57434;42.794;23.302;2023-02-23T05:41:14;95563.50;;;-0.70;72.12
70072;BME280;57434;42.794;23.302;2023-02-23T05:42:17;95470.66;;;-1.12;71.56
70072;BME280;57434;42.794;23.302;2023-02-23T05:43:19;95582.91;;;-0.53;71.32
70072;BME280;57434;42.794;23.302;2023-02-23T05:44:22;95567.78;;;-0.45;70.78
70072;BME280;57434;42.794;23.302;2023-02-23T05:45:24;95597.66;;;-0.20;70.87
70072;BME280;57434;42.794;23.302;2023-02-23T05:46:26;95590.34;;;-0.11;70.45
70072;BME280;57434;42.794;23.302;2023-02-23T05:47:30;95541.72;;;-0.41;70.01
70072;BME280;57434;42.794;23.302;2023-02-23T05:48:34;95588.09;;;0.04;70.01
70072;BME280;57434;42.794;23.302;2023-02-23T05:49:36;95587.94;;;0.11;70.05
70072;BME280;57434;42.794;23.302;2023-02-23T05:50:38;95585.59;;;0.10;70.53
70072;BME280;57434;42.794;23.302;2023-02-23T05:51:40;95390.53;;;-0.98;70.80
70072;BME280;57434;42.794;23.302;2023-02-23T05:52:42;95621.28;;;0.56;70.61
70072;BME280;57434;42.794;23.302;2023-02-23T05:53:44;95568.78;;;0.40;70.37
70072;BME280;57434;42.794;23.302;2023-02-23T05:54:46;95565.34;;;0.36;71.21
70072;BME280;57434;42.794;23.302;2023-02-23T05:55:48;95599.72;;;0.51;72.17
70072;BME280;57434;42.794;23.302;2023-02-23T05:56:50;95597.56;;;0.59;71.58
70072;BME280;57434;42.794;23.302;2023-02-23T05:57:53;95609.91;;;0.70;70.57
70072;BME280;57434;42.794;23.302;2023-02-23T05:58:57;95588.44;;;0.78;70.40
70072;BME280;57434;42.794;23.302;2023-02-23T05:59:59;95545.72;;;0.50;70.04
70072;BME280;57434;42.794;23.302;2023-02-23T06:01:01;95583.28;;;0.80;70.33
70072;BME280;57434;42.794;23.302;2023-02-23T06:02:03;95597.09;;;0.80;69.72
70072;BME280;57434;42.794;23.302;2023-02-23T06:03:06;95585.41;;;0.73;69.35
70072;BME280;57434;42.794;23.302;2023-02-23T06:04:08;95616.41;;;0.96;69.15
70072;BME280;57434;42.794;23.302;2023-02-23T06:05:11;95605.00;;;0.78;69.19
70072;BME280;57434;42.794;23.302;2023-02-23T06:06:14;95619.03;;;0.87;69.16
70072;BME280;57434;42.794;23.302;2023-02-23T06:07:17;95564.09;;;0.57;68.95
70072;BME280;57434;42.794;23.302;2023-02-23T06:08:19;95564.78;;;0.61;68.97
70072;BME280;57434;42.794;23.302;2023-02-23T06:09:21;95545.25;;;0.35;68.85
70072;BME280;57434;42.794;23.302;2023-02-23T06:10:23;95621.16;;;0.96;68.78
70072;BME280;57434;42.794;23.302;2023-02-23T06:11:26;95616.53;;;1.09;68.80
70072;BME280;57434;42.794;23.302;2023-02-23T06:12:28;95632.94;;;1.16;68.84
70072;BME280;57434;42.794;23.302;2023-02-23T06:13:30;95617.72;;;1.24;68.79
70072;BME280;57434;42.794;23.302;2023-02-23T06:14:33;95566.25;;;0.98;68.75
70072;BME280;57434;42.794;23.302;2023-02-23T06:15:35;95613.50;;;1.36;68.47
70072;BME280;57434;42.794;23.302;2023-02-23T06:16:37;95605.19;;;1.36;68.73
70072;BME280;57434;42.794;23.302;2023-02-23T06:17:40;95637.31;;;1.62;68.79